Time;durP1;ratioP1;P1;durP2;ratioP2;P2;SDS_P1;SDS_P2;PMS_P1;PMS_P2;Temp;Humidity;BMP_temperature;BMP_pressure;BME280_temperature;BME280_humidity;BME280_pressure;Samples;Min_cycle;Max_cycle;Signal;HPM_P1;HPM_P2
2023/05/26 00:04:09;;;;;;;6.32;2.70;;;;;;;10.15;100.00;99283.19;15283706;19;20029;-45
2023/05/26 00:09:33;;;;;;;5.60;2.72;;;;;;;10.05;100.00;99282.31;15284119;19;20014;-44
2023/05/26 00:14:58;;;;;;;6.70;3.13;;;;;;;9.95;100.00;99284.94;15275805;19;20234;-42
2023/05/26 00:20:25;;;;;;;4.95;2.80;;;;;;;9.90;100.00;99286.34;15286102;19;20017;-43
2023/05/26 00:25:58;;;;;;;5.28;2.70;;;;;;;9.83;100.00;99284.19;15281488;19;20010;-44
2023/05/26 00:31:22;;;;;;;5.50;2.78;;;;;;;9.77;100.00;99275.78;15283286;19;20068;-45
2023/05/26 00:36:50;;;;;;;5.18;2.83;;;;;;;9.68;100.00;99272.09;15279183;19;20078;-46
2023/05/26 00:42:14;;;;;;;5.30;2.92;;;;;;;9.60;100.00;99267.38;15282713;19;20018;-44
2023/05/26 00:47:39;;;;;;;5.68;2.80;;;;;;;9.50;100.00;99275.38;15274370;19;20362;-47
2023/05/26 00:53:07;;;;;;;5.30;3.05;;;;;;;9.42;100.00;99267.13;15283630;19;20227;-47
2023/05/26 00:58:33;;;;;;;6.03;3.30;;;;;;;9.35;100.00;99268.66;15282850;19;20010;-44
2023/05/26 01:03:58;;;;;;;4.63;2.88;;;;;;;9.28;100.00;99271.03;15282288;19;20373;-43
2023/05/26 01:09:25;;;;;;;5.65;3.10;;;;;;;9.21;100.00;99265.31;15284816;19;20018;-44
2023/05/26 01:14:55;;;;;;;5.38;3.13;;;;;;;9.14;100.00;99274.88;15277923;19;20010;-44
2023/05/26 01:20:29;;;;;;;6.13;3.17;;;;;;;9.06;100.00;99272.84;15272261;19;20082;-45
2023/05/26 01:26:21;;;;;;;7.75;3.35;;;;;;;9.01;100.00;99269.72;15277119;19;20033;-43
2023/05/26 01:31:50;;;;;;;5.38;2.95;;;;;;;8.94;100.00;99274.75;15278579;19;20471;-43
2023/05/26 01:37:14;;;;;;;5.28;3.08;;;;;;;8.90;100.00;99278.66;15276168;19;20029;-44
2023/05/26 01:42:46;;;;;;;5.72;2.97;;;;;;;8.87;100.00;99283.47;15280972;19;20029;-46
2023/05/26 01:48:15;;;;;;;7.13;3.20;;;;;;;8.81;100.00;99279.44;15276397;19;20035;-47
2023/05/26 01:53:41;;;;;;;7.25;4.05;;;;;;;8.78;100.00;99287.75;15271266;19;20018;-47
2023/05/26 01:59:07;;;;;;;7.13;3.38;;;;;;;8.74;100.00;99297.09;15278450;19;20484;-44
2023/05/26 02:04:36;;;;;;;7.78;3.67;;;;;;;8.68;100.00;99286.84;15275064;19;20046;-45
2023/05/26 02:10:02;;;;;;;7.70;4.03;;;;;;;8.63;100.00;99281.84;15276028;19;20114;-45
2023/05/26 02:15:26;;;;;;;8.05;4.35;;;;;;;8.58;100.00;99300.19;15275737;19;20013;-46
2023/05/26 02:20:54;;;;;;;8.23;4.10;;;;;;;8.52;100.00;99301.56;15274841;19;20088;-44
2023/05/26 02:26:19;;;;;;;6.68;3.80;;;;;;;8.44;100.00;99299.47;15268057;19;20024;-44
2023/05/26 02:31:43;;;;;;;7.68;3.80;;;;;;;8.38;100.00;99304.47;15275768;19;20014;-44
2023/05/26 02:37:11;;;;;;;6.22;3.47;;;;;;;8.31;100.00;99299.59;14759771;19;9999829;-45
2023/05/26 02:42:35;;;;;;;6.80;3.67;;;;;;;8.26;100.00;99293.75;15276599;19;20043;-43
2023/05/26 02:48:01;;;;;;;5.55;3.30;;;;;;;8.16;100.00;99299.00;15282290;19;20055;-45
2023/05/26 02:53:28;;;;;;;7.05;3.20;;;;;;;8.08;100.00;99288.06;15289724;19;20019;-45
2023/05/26 02:58:53;;;;;;;7.35;3.60;;;;;;;7.99;100.00;99286.97;15281840;19;20024;-45
2023/05/26 03:04:18;;;;;;;6.97;3.65;;;;;;;7.92;100.00;99291.13;15282097;19;20029;-44
2023/05/26 03:09:45;;;;;;;8.25;3.85;;;;;;;7.84;100.00;99290.88;15280195;19;20053;-42
2023/05/26 03:15:11;;;;;;;7.13;3.58;;;;;;;7.76;100.00;99293.31;15275994;19;20015;-45
2023/05/26 03:20:37;;;;;;;5.43;3.78;;;;;;;7.67;100.00;99295.75;15283246;19;20018;-43
2023/05/26 03:26:04;;;;;;;5.95;4.00;;;;;;;7.64;100.00;99290.63;15279368;19;20014;-42
2023/05/26 03:31:30;;;;;;;5.35;3.40;;;;;;;7.59;100.00;99298.16;15281074;19;20018;-42
2023/05/26 03:36:55;;;;;;;11.15;3.72;;;;;;;7.59;100.00;99298.16;15282131;19;20053;-44
2023/05/26 03:42:23;;;;;;;7.45;4.30;;;;;;;7.62;100.00;99303.28;15288019;19;20018;-45
2023/05/26 03:47:49;;;;;;;6.82;4.25;;;;;;;7.64;100.00;99306.72;15284312;19;20105;-42
2023/05/26 03:53:15;;;;;;;7.82;4.45;;;;;;;7.68;100.00;99312.69;15288043;19;20019;-43
2023/05/26 03:58:43;;;;;;;7.20;4.40;;;;;;;7.73;100.00;99321.25;15279694;19;20349;-46
2023/05/26 04:04:08;;;;;;;7.65;3.85;;;;;;;7.76;100.00;99318.28;15275267;19;20127;-41
2023/05/26 04:09:34;;;;;;;6.40;3.95;;;;;;;7.85;100.00;99324.75;15281745;19;20047;-42
2023/05/26 04:15:02;;;;;;;7.10;4.00;;;;;;;7.93;100.00;99327.72;15278813;19;20033;-47
2023/05/26 04:20:27;;;;;;;6.05;3.97;;;;;;;8.04;100.00;99355.53;15283312;19;20031;-43
2023/05/26 04:25:51;;;;;;;10.15;4.05;;;;;;;8.10;100.00;99349.66;15281780;19;20050;-44
2023/05/26 04:31:40;;;;;;;6.00;3.70;;;;;;;8.16;100.00;99354.53;15278778;19;20019;-44
2023/05/26 04:37:24;;;;;;;7.47;4.15;;;;;;;8.24;100.00;99360.16;15278524;19;20033;-44
2023/05/26 04:42:50;;;;;;;7.25;4.10;;;;;;;8.31;100.00;99369.41;15273347;19;20291;-46
2023/05/26 04:48:20;;;;;;;6.75;4.03;;;;;;;8.40;100.00;99361.59;15276544;19;20018;-43
2023/05/26 04:53:45;;;;;;;7.20;4.07;;;;;;;8.50;100.00;99359.91;15283700;19;20010;-44
2023/05/26 04:59:11;;;;;;;5.70;3.95;;;;;;;8.58;100.00;99362.81;15281126;19;20022;-45
2023/05/26 05:04:39;;;;;;;7.70;4.10;;;;;;;8.69;100.00;99367.31;15269469;19;20089;-43
2023/05/26 05:10:05;;;;;;;7.05;4.00;;;;;;;8.75;100.00;99372.16;15279599;19;20354;-43
2023/05/26 05:15:31;;;;;;;8.27;4.07;;;;;;;8.81;100.00;99370.81;15278652;19;20011;-46
2023/05/26 05:20:59;;;;;;;8.60;4.38;;;;;;;8.86;100.00;99383.88;15282931;19;20017;-43
2023/05/26 05:26:25;;;;;;;9.05;4.40;;;;;;;8.95;100.00;99391.16;15275514;19;20341;-44
2023/05/26 05:31:52;;;;;;;8.02;4.07;;;;;;;9.01;100.00;99400.56;15250671;19;20074;-47
2023/05/26 05:37:27;;;;;;;11.15;4.30;;;;;;;9.12;100.00;99416.63;15270853;19;20081;-42
2023/05/26 05:42:54;;;;;;;9.55;4.18;;;;;;;9.21;100.00;99413.22;15280146;19;20047;-50
2023/05/26 05:48:19;;;;;;;10.32;4.22;;;;;;;9.36;100.00;99412.88;15275846;19;20020;-46
2023/05/26 05:53:54;;;;;;;16.67;4.75;;;;;;;9.65;100.00;99420.34;15278297;19;20847;-43
2023/05/26 05:59:20;;;;;;;14.73;4.40;;;;;;;9.86;100.00;99415.81;15278993;19;20018;-45
2023/05/26 06:04:45;;;;;;;16.02;4.63;;;;;;;10.12;100.00;99399.22;15275672;19;20018;-46
2023/05/26 06:10:13;;;;;;;18.70;4.70;;;;;;;10.37;100.00;99391.69;15270006;19;20023;-45
2023/05/26 06:15:37;;;;;;;13.45;4.13;;;;;;;10.52;100.00;99388.66;15279288;19;20031;-50
2023/05/26 06:21:04;;;;;;;13.75;4.03;;;;;;;10.68;100.00;99390.81;15277105;19;20038;-47
2023/05/26 06:26:35;;;;;;;12.02;4.20;;;;;;;10.83;100.00;99396.66;15272303;19;20047;-45
2023/05/26 06:32:00;;;;;;;13.68;3.88;;;;;;;11.02;100.00;99401.25;15284699;19;20508;-47
2023/05/26 06:37:25;;;;;;;12.73;4.25;;;;;;;11.21;100.00;99397.72;15277377;19;20010;-47
2023/05/26 06:42:53;;;;;;;14.43;4.32;;;;;;;11.39;100.00;99405.94;15277531;19;20374;-49
2023/05/26 06:48:19;;;;;;;13.43;4.07;;;;;;;11.60;100.00;99404.94;15271619;19;20019;-44
2023/05/26 06:53:59;;;;;;;11.63;3.60;;;;;;;11.81;100.00;99407.47;15276394;19;20040;-43
2023/05/26 06:59:26;;;;;;;13.52;4.03;;;;;;;12.02;100.00;99408.16;15275476;19;20011;-44
2023/05/26 07:04:52;;;;;;;13.98;4.10;;;;;;;12.12;100.00;99409.97;15274938;19;20010;-48
2023/05/26 07:10:18;;;;;;;16.25;4.18;;;;;;;12.22;100.00;99405.38;15274230;19;20098;-50
2023/05/26 07:15:45;;;;;;;13.48;4.30;;;;;;;12.31;100.00;99399.09;15267422;19;20022;-43
2023/05/26 07:21:11;;;;;;;12.40;4.25;;;;;;;12.46;100.00;99406.72;15275473;19;20010;-48
2023/05/26 07:26:37;;;;;;;14.88;4.35;;;;;;;12.60;100.00;99400.81;15269511;19;20387;-48
2023/05/26 07:32:05;;;;;;;16.10;4.47;;;;;;;12.69;100.00;99393.66;15279854;19;20018;-47
2023/05/26 07:37:30;;;;;;;15.60;4.20;;;;;;;12.87;100.00;99392.84;15280423;19;20077;-48
2023/05/26 07:42:54;;;;;;;17.52;4.70;;;;;;;13.00;100.00;99393.31;15284159;19;20244;-50
2023/05/26 07:48:21;;;;;;;11.85;3.83;;;;;;;13.13;100.00;99397.50;15272696;19;20277;-46
2023/05/26 07:53:46;;;;;;;13.60;4.28;;;;;;;13.24;100.00;99395.41;15290072;19;20098;-48
2023/05/26 07:59:17;;;;;;;15.93;4.80;;;;;;;13.35;100.00;99397.03;15287919;19;20017;-47
2023/05/26 08:04:44;;;;;;;13.38;4.32;;;;;;;13.47;100.00;99388.72;15286566;19;20038;-45
2023/05/26 08:10:09;;;;;;;10.57;3.78;;;;;;;13.69;100.00;99395.50;15287380;19;20019;-45
2023/05/26 08:15:34;;;;;;;12.30;3.92;;;;;;;13.95;100.00;99392.78;15279849;19;20045;-45
2023/05/26 08:21:01;;;;;;;13.23;4.00;;;;;;;14.16;100.00;99391.56;15279826;19;20499;-46
2023/05/26 08:26:27;;;;;;;11.90;4.07;;;;;;;14.34;100.00;99396.91;15286322;19;20355;-79
2023/05/26 08:31:52;;;;;;;15.32;3.85;;;;;;;14.47;100.00;99391.03;15300053;19;20006;-79
2023/05/26 08:37:22;;;;;;;14.02;4.30;;;;;;;14.58;100.00;99387.19;15297090;19;20010;-80
2023/05/26 08:43:00;;;;;;;12.55;3.67;;;;;;;14.59;100.00;99380.75;15297308;19;20014;-81
2023/05/26 08:48:27;;;;;;;10.20;3.47;;;;;;;14.64;100.00;99381.97;15291230;19;20082;-79
2023/05/26 08:53:56;;;;;;;12.38;3.80;;;;;;;14.81;100.00;99376.63;15292664;19;20364;-79
2023/05/26 08:59:22;;;;;;;11.63;3.67;;;;;;;15.05;100.00;99375.84;15297543;19;20017;-78
2023/05/26 09:04:47;;;;;;;10.38;3.97;;;;;;;15.19;100.00;99378.91;15297953;19;20086;-78
2023/05/26 09:10:28;;;;;;;9.93;3.40;;;;;;;15.27;100.00;99376.19;15307352;19;20006;-79
2023/05/26 09:16:00;;;;;;;8.15;3.03;;;;;;;15.38;100.00;99386.72;15316275;19;20013;-79
2023/05/26 09:21:35;;;;;;;10.48;3.40;;;;;;;15.41;100.00;99389.09;15296504;19;20042;-80
2023/05/26 09:27:02;;;;;;;10.48;3.53;;;;;;;15.58;100.00;99383.69;15292523;19;20031;-79
2023/05/26 09:32:28;;;;;;;8.93;3.33;;;;;;;15.65;100.00;99383.84;15299821;19;20013;-81
2023/05/26 09:37:52;;;;;;;10.35;3.30;;;;;;;15.98;100.00;99383.84;15294108;19;20086;-81
2023/05/26 09:43:21;;;;;;;13.43;4.10;;;;;;;16.21;100.00;99380.41;15299884;19;20018;-79
2023/05/26 09:48:46;;;;;;;9.77;3.58;;;;;;;16.35;100.00;99385.09;15290380;19;20025;-79
2023/05/26 09:54:12;;;;;;;13.15;4.18;;;;;;;16.39;100.00;99385.59;15289942;19;20560;-80
2023/05/26 09:59:43;;;;;;;10.18;3.40;;;;;;;16.44;100.00;99377.75;15297871;19;20041;-80
2023/05/26 10:05:09;;;;;;;12.25;3.85;;;;;;;16.52;100.00;99383.19;15299210;19;20054;-79
2023/05/26 10:10:38;;;;;;;10.32;3.00;;;;;;;16.55;100.00;99380.09;15298373;19;20098;-81
2023/05/26 10:16:06;;;;;;;9.65;3.30;;;;;;;16.54;100.00;99375.66;15300219;19;20011;-79
2023/05/26 10:21:36;;;;;;;12.57;3.50;;;;;;;16.72;100.00;99385.47;15300739;19;20021;-80
2023/05/26 10:27:13;;;;;;;9.25;3.42;;;;;;;16.76;100.00;99375.91;15299369;19;20021;-81
2023/05/26 10:32:47;;;;;;;13.95;3.92;;;;;;;16.88;100.00;99368.19;15352814;19;20214;-79
2023/05/26 10:38:20;;;;;;;10.50;3.72;;;;;;;16.80;100.00;99371.81;15299271;19;20481;-80
2023/05/26 10:43:46;;;;;;;9.85;3.35;;;;;;;16.73;100.00;99370.84;15288010;19;20024;-80
2023/05/26 10:49:27;;;;;;;10.30;3.97;;;;;;;16.99;100.00;99370.56;15283770;19;20018;-80
2023/05/26 10:54:53;;;;;;;10.13;3.70;;;;;;;17.00;100.00;99365.94;15289539;19;20043;-81
2023/05/26 11:00:33;;;;;;;11.35;3.47;;;;;;;17.15;100.00;99371.47;15283165;19;20031;-80
2023/05/26 11:06:01;;;;;;;9.50;3.58;;;;;;;17.27;100.00;99367.31;15292939;19;20009;-80
2023/05/26 11:11:38;;;;;;;12.90;3.42;;;;;;;17.28;94.43;99374.44;15307709;19;20011;-80
2023/05/26 11:17:06;;;;;;;9.32;3.13;;;;;;;17.64;100.00;99357.44;15304874;19;20018;-78
2023/05/26 11:22:34;;;;;;;9.93;3.40;;;;;;;17.88;100.00;99355.50;15303480;19;20017;-79
2023/05/26 11:28:06;;;;;;;8.60;3.33;;;;;;;18.07;100.00;99348.72;15295052;19;20119;-78
2023/05/26 11:33:31;;;;;;;9.77;3.90;;;;;;;17.73;100.00;99355.50;15294748;19;20039;-79
2023/05/26 11:39:00;;;;;;;9.18;3.50;;;;;;;17.71;100.00;99363.00;15294495;19;20026;-78
2023/05/26 11:44:31;;;;;;;10.38;3.83;;;;;;;17.18;99.27;99369.22;15298870;19;20368;-77
2023/05/26 11:49:55;;;;;;;9.95;3.58;;;;;;;17.43;100.00;99354.56;15295837;19;20014;-77
2023/05/26 11:55:26;;;;;;;11.43;3.63;;;;;;;17.63;100.00;99354.91;15298499;19;20020;-77
2023/05/26 12:00:50;;;;;;;9.55;3.25;;;;;;;17.62;99.71;99351.34;15294385;19;20006;-78
2023/05/26 12:06:20;;;;;;;11.02;3.80;;;;;;;17.91;91.54;99357.03;15289746;19;20015;-78
2023/05/26 12:11:47;;;;;;;11.05;3.50;;;;;;;17.69;96.28;99354.19;15298194;19;20734;-78
2023/05/26 12:17:15;;;;;;;10.43;3.45;;;;;;;17.90;96.20;99350.72;15295275;19;20014;-78
2023/05/26 12:22:39;;;;;;;12.90;3.88;;;;;;;17.91;97.26;99352.41;15303971;19;20014;-78
2023/05/26 12:28:14;;;;;;;8.13;3.20;;;;;;;18.03;86.88;99347.41;15293510;19;20011;-78
2023/05/26 12:33:39;;;;;;;8.55;3.40;;;;;;;18.01;83.35;99339.41;15299040;19;20014;-81
2023/05/26 12:39:04;;;;;;;10.02;3.70;;;;;;;18.23;78.59;99342.22;15288835;19;20003;-78
2023/05/26 12:44:34;;;;;;;9.40;3.20;;;;;;;18.35;77.25;99348.06;15297805;19;20017;-78
2023/05/26 12:49:58;;;;;;;10.93;3.55;;;;;;;18.56;80.84;99346.44;15296322;19;20361;-79
2023/05/26 12:55:23;;;;;;;8.50;3.35;;;;;;;18.61;76.16;99343.97;15301220;19;20018;-79
2023/05/26 13:00:50;;;;;;;8.43;3.42;;;;;;;18.51;75.38;99340.72;15302165;19;20022;-78
2023/05/26 13:06:15;;;;;;;7.95;3.05;;;;;;;19.00;77.90;99340.03;15295278;19;20010;-79
2023/05/26 13:11:39;;;;;;;9.02;3.17;;;;;;;19.33;77.28;99345.00;15299325;19;20034;-80
2023/05/26 13:17:07;;;;;;;9.55;3.53;;;;;;;19.16;71.69;99343.56;15317078;19;20002;-78
2023/05/26 13:22:31;;;;;;;7.85;2.90;;;;;;;19.58;73.44;99341.84;15304717;19;20038;-79
2023/05/26 13:28:03;;;;;;;8.20;2.95;;;;;;;19.52;73.40;99334.44;15293908;19;20031;-79
2023/05/26 13:33:31;;;;;;;9.95;3.55;;;;;;;19.09;70.40;99347.09;15300942;19;20018;-79
2023/05/26 13:38:55;;;;;;;10.43;3.47;;;;;;;19.21;74.51;99341.09;15295739;19;20014;-80
2023/05/26 13:44:20;;;;;;;11.23;3.50;;;;;;;19.34;72.69;99341.25;15300022;19;20090;-81
2023/05/26 13:49:47;;;;;;;7.40;3.10;;;;;;;20.05;67.95;99330.47;15300871;19;20018;-80
2023/05/26 14:01:25;;;;;;;5.90;2.63;;;;;;;19.94;58.88;99332.69;15321100;19;20966;-81
2023/05/26 14:06:57;;;;;;;10.10;3.00;;;;;;;20.33;62.21;99342.19;15323255;19;20014;-80
2023/05/26 14:12:46;;;;;;;7.45;3.03;;;;;;;20.64;56.84;99329.88;15303162;19;20477;-82
2023/05/26 14:18:11;;;;;;;9.10;3.30;;;;;;;20.55;61.39;99325.66;15303782;19;20485;-81
2023/05/26 14:23:40;;;;;;;7.80;3.28;;;;;;;20.40;59.03;99334.00;15312616;19;20014;-82
2023/05/26 14:29:17;;;;;;;8.68;2.88;;;;;;;20.64;54.42;99323.59;15313612;19;20477;-80
2023/05/26 14:34:38;;;;;;;6.95;3.00;;;;;;;21.38;56.24;99321.88;15347798;19;20010;-81
2023/05/26 14:40:11;;;;;;;7.18;2.90;;;;;;;21.65;53.23;99324.63;15299291;19;20373;-81
2023/05/26 14:45:35;;;;;;;8.65;3.00;;;;;;;21.23;54.85;99322.06;15298645;19;20106;-80
2023/05/26 14:51:01;;;;;;;7.07;2.60;;;;;;;21.43;50.06;99325.88;15300967;19;20018;-80
2023/05/26 14:56:29;;;;;;;7.72;2.97;;;;;;;21.82;54.53;99325.03;15309757;19;20035;-80
2023/05/26 15:01:58;;;;;;;6.97;2.80;;;;;;;21.29;51.17;99333.25;15321301;19;20010;-81
2023/05/26 15:07:22;;;;;;;7.15;2.72;;;;;;;21.35;51.87;99324.19;15314714;19;20430;-82
2023/05/26 15:12:50;;;;;;;8.88;2.70;;;;;;;21.15;50.13;99313.22;15316413;19;20021;-82
2023/05/26 15:18:15;;;;;;;7.80;2.90;;;;;;;21.44;50.79;99322.09;15301648;19;20058;-81
2023/05/26 15:23:40;;;;;;;5.93;2.70;;;;;;;21.71;48.96;99309.22;15310106;19;20014;-80
2023/05/26 15:29:07;;;;;;;5.22;2.33;;;;;;;21.36;49.72;99310.28;15304957;19;20017;-80
2023/05/26 15:34:32;;;;;;;6.68;2.67;;;;;;;21.51;48.50;99307.31;15316212;19;20034;-81
2023/05/26 15:39:56;;;;;;;4.57;2.20;;;;;;;21.21;49.89;99305.00;15314533;19;20018;-80
2023/05/26 15:45:26;;;;;;;6.35;2.70;;;;;;;20.92;51.68;99307.06;15312446;19;20031;-80
2023/05/26 15:50:52;;;;;;;8.77;2.80;;;;;;;21.72;51.49;99305.44;15307736;19;20026;-80
2023/05/26 15:56:18;;;;;;;6.55;2.55;;;;;;;22.23;47.71;99308.50;15313705;19;20022;-83
2023/05/26 16:01:46;;;;;;;6.68;2.47;;;;;;;21.59;48.21;99299.94;15314155;19;20024;-83
2023/05/26 16:07:11;;;;;;;6.53;2.42;;;;;;;21.92;46.03;99305.41;15307992;19;20014;-81
2023/05/26 16:12:36;;;;;;;11.77;2.80;;;;;;;21.64;49.54;99301.00;15307815;19;20007;-81
2023/05/26 16:18:04;;;;;;;7.40;2.60;;;;;;;21.24;50.00;99304.56;15301512;19;20468;-81
2023/05/26 16:23:28;;;;;;;6.90;2.47;;;;;;;21.77;50.21;99294.69;15305258;19;20074;-80
2023/05/26 16:29:00;;;;;;;7.28;2.60;;;;;;;21.99;49.09;99303.50;15300797;19;20026;-81
2023/05/26 16:34:28;;;;;;;5.82;2.40;;;;;;;21.72;49.33;99301.88;15312075;19;20038;-83
2023/05/26 16:39:52;;;;;;;6.22;2.78;;;;;;;21.76;50.05;99303.97;15307491;19;20022;-82
2023/05/26 16:45:17;;;;;;;8.68;3.00;;;;;;;21.23;50.66;99304.78;15306032;19;20022;-80
2023/05/26 16:50:44;;;;;;;7.45;3.00;;;;;;;21.47;49.36;99316.19;15304236;19;20007;-81
2023/05/26 16:56:09;;;;;;;8.40;2.90;;;;;;;20.96;50.41;99299.25;15290750;19;20018;-80
2023/05/26 17:01:35;;;;;;;7.82;2.53;;;;;;;20.78;51.25;99297.09;15292286;19;20437;-80
2023/05/26 17:07:02;;;;;;;8.05;3.17;;;;;;;20.28;51.56;99302.78;15290415;19;20025;-81
2023/05/26 17:12:30;;;;;;;7.03;2.60;;;;;;;20.06;51.58;99302.03;15292781;19;20089;-81
2023/05/26 17:18:01;;;;;;;9.38;3.00;;;;;;;19.79;52.11;99310.06;15247250;19;20753;-44
2023/05/26 17:23:29;;;;;;;6.95;2.42;;;;;;;19.25;53.55;99310.47;15272758;19;20014;-46
2023/05/26 17:28:53;;;;;;;9.27;3.15;;;;;;;19.00;54.08;99307.25;15262910;19;20014;-43
2023/05/26 17:34:19;;;;;;;9.23;2.53;;;;;;;19.12;54.16;99309.47;15270462;19;20024;-43
2023/05/26 17:39:46;;;;;;;7.90;2.58;;;;;;;18.99;54.54;99313.78;15271537;19;20498;-43
2023/05/26 17:45:12;;;;;;;7.93;2.88;;;;;;;19.01;54.84;99297.19;15271837;19;20021;-46
2023/05/26 17:50:37;;;;;;;6.75;2.70;;;;;;;18.85;55.74;99311.91;15269755;19;20006;-45
2023/05/26 17:56:05;;;;;;;12.70;2.97;;;;;;;18.56;56.13;99310.94;15267325;19;20789;-45
2023/05/26 18:01:30;;;;;;;6.55;2.80;;;;;;;18.52;57.12;99305.03;15268372;19;20085;-45
2023/05/26 18:06:56;;;;;;;6.70;2.40;;;;;;;18.27;57.12;99316.25;15267805;19;20027;-44
2023/05/26 18:12:23;;;;;;;8.30;2.67;;;;;;;18.00;57.34;99323.22;15269565;19;20340;-49
2023/05/26 18:17:54;;;;;;;6.35;2.53;;;;;;;17.73;57.04;99322.78;15268265;19;20029;-45
2023/05/26 18:23:21;;;;;;;6.93;2.50;;;;;;;17.62;57.50;99317.78;15268741;19;20218;-44
2023/05/26 18:28:48;;;;;;;7.60;2.30;;;;;;;17.38;57.59;99322.44;15265639;19;20928;-44
2023/05/26 18:34:13;;;;;;;5.57;2.50;;;;;;;16.97;57.36;99329.03;15265304;19;20033;-46
2023/05/26 18:39:42;;;;;;;8.63;2.58;;;;;;;16.80;58.92;99331.00;15269598;19;20014;-45
2023/05/26 18:45:12;;;;;;;6.80;2.63;;;;;;;16.47;59.51;99329.28;15267502;19;20472;-45
2023/05/26 18:50:37;;;;;;;6.32;2.25;;;;;;;16.17;61.73;99323.66;15265850;19;20021;-45
2023/05/26 18:56:02;;;;;;;7.90;2.50;;;;;;;15.90;64.01;99321.34;15260245;19;20002;-46
2023/05/26 19:01:29;;;;;;;6.22;2.17;;;;;;;15.60;64.65;99331.91;15265620;19;20046;-45
2023/05/26 19:06:56;;;;;;;6.63;2.05;;;;;;;15.31;66.19;99334.13;15264648;19;20690;-44
2023/05/26 19:12:20;;;;;;;7.13;2.35;;;;;;;15.08;67.74;99340.22;15261804;19;20019;-44
2023/05/26 19:17:54;;;;;;;6.53;2.28;;;;;;;14.85;67.87;99348.13;15259448;19;20026;-45
2023/05/26 19:23:19;;;;;;;10.07;2.50;;;;;;;14.65;70.27;99350.25;15264773;19;20018;-44
2023/05/26 19:28:44;;;;;;;8.25;2.05;;;;;;;14.49;72.77;99351.91;15272428;19;20025;-44
2023/05/26 19:34:14;;;;;;;6.60;2.22;;;;;;;14.33;74.96;99346.41;15272957;19;20010;-45
2023/05/26 19:39:40;;;;;;;6.80;2.60;;;;;;;14.19;75.92;99350.59;15278892;19;20465;-43
2023/05/26 19:45:06;;;;;;;7.50;2.20;;;;;;;14.09;76.33;99350.72;15276032;19;20013;-43
2023/05/26 19:50:33;;;;;;;8.23;2.33;;;;;;;13.98;77.46;99349.13;15276408;19;20037;-44
2023/05/26 19:55:58;;;;;;;7.72;2.47;;;;;;;13.89;79.10;99346.53;15274442;19;20474;-44
2023/05/26 20:01:23;;;;;;;6.68;2.13;;;;;;;13.81;80.06;99359.03;15278050;19;20021;-45
2023/05/26 20:06:52;;;;;;;9.98;2.38;;;;;;;13.71;82.98;99355.53;15268293;19;20030;-44
2023/05/26 20:12:18;;;;;;;6.07;2.10;;;;;;;13.64;82.55;99365.31;15274083;19;20010;-52
2023/05/26 20:17:51;;;;;;;7.30;2.20;;;;;;;13.55;82.42;99367.97;15270362;19;20011;-44
2023/05/26 20:23:19;;;;;;;7.38;2.20;;;;;;;13.43;83.73;99366.53;15274811;19;20371;-44
2023/05/26 20:28:47;;;;;;;6.55;2.47;;;;;;;13.34;84.82;99370.13;15273297;19;20066;-43
2023/05/26 20:34:13;;;;;;;8.02;2.30;;;;;;;13.23;87.21;99377.47;15275485;19;20015;-43
2023/05/26 20:39:43;;;;;;;7.25;2.30;;;;;;;13.11;91.07;99381.44;15270347;19;20183;-45
2023/05/26 20:45:13;;;;;;;8.55;2.30;;;;;;;12.99;93.60;99385.38;15274614;19;20011;-44
2023/05/26 20:50:44;;;;;;;8.63;2.35;;;;;;;12.86;96.41;99393.84;15271731;19;20381;-45
2023/05/26 20:56:12;;;;;;;6.22;2.28;;;;;;;12.82;100.00;99400.56;15271167;19;20035;-46
2023/05/26 21:01:38;;;;;;;10.15;2.70;;;;;;;12.79;100.00;99396.28;15271683;19;20721;-44
2023/05/26 21:07:04;;;;;;;6.35;2.00;;;;;;;12.70;100.00;99402.63;15270691;19;20014;-43
2023/05/26 21:12:35;;;;;;;6.40;2.10;;;;;;;12.59;100.00;99407.22;15269434;19;20003;-44
2023/05/26 21:18:03;;;;;;;6.10;2.05;;;;;;;12.48;100.00;99412.81;15273078;19;20014;-46
2023/05/26 21:23:32;;;;;;;9.02;2.45;;;;;;;12.43;100.00;99425.91;15279909;19;20492;-43
2023/05/26 21:29:01;;;;;;;8.68;2.58;;;;;;;12.40;100.00;99418.13;15277715;19;20015;-44
2023/05/26 21:34:26;;;;;;;8.38;2.45;;;;;;;12.36;100.00;99416.72;15276518;19;20015;-43
2023/05/26 21:39:51;;;;;;;9.40;2.17;;;;;;;12.24;100.00;99418.72;15273087;19;20010;-44
2023/05/26 21:45:20;;;;;;;8.73;2.40;;;;;;;12.12;100.00;99426.19;15266770;19;20503;-42
2023/05/26 21:50:47;;;;;;;9.50;2.58;;;;;;;12.05;100.00;99425.06;15267262;19;20013;-42
2023/05/26 21:56:11;;;;;;;7.80;2.40;;;;;;;12.00;100.00;99414.69;15267295;19;20035;-42
2023/05/26 22:01:40;;;;;;;5.22;2.15;;;;;;;11.98;100.00;99417.53;15268654;19;20020;-44
2023/05/26 22:07:05;;;;;;;6.20;2.13;;;;;;;11.96;100.00;99424.06;15266842;19;20479;-43
2023/05/26 22:12:29;;;;;;;8.60;2.40;;;;;;;11.87;100.00;99420.38;15266282;19;20015;-44
2023/05/26 22:17:57;;;;;;;7.68;2.30;;;;;;;11.79;100.00;99412.16;15260483;19;20713;-43
2023/05/26 22:23:22;;;;;;;6.35;2.45;;;;;;;11.71;100.00;99424.50;15266446;19;20732;-43
2023/05/26 22:28:47;;;;;;;8.25;2.35;;;;;;;11.61;100.00;99420.97;15266052;19;20010;-42
2023/05/26 22:34:19;;;;;;;6.30;2.20;;;;;;;11.55;100.00;99429.66;15268764;19;20329;-44
2023/05/26 22:39:45;;;;;;;10.00;2.50;;;;;;;11.49;100.00;99416.72;15259245;19;20498;-48
2023/05/26 22:45:11;;;;;;;8.15;2.60;;;;;;;11.44;100.00;99427.09;15261140;19;20344;-47
2023/05/26 22:50:39;;;;;;;8.55;2.45;;;;;;;11.41;100.00;99428.22;15258693;19;20021;-47
2023/05/26 22:56:03;;;;;;;8.02;2.40;;;;;;;11.36;100.00;99428.66;15267984;19;20042;-46
2023/05/26 23:01:30;;;;;;;9.15;2.60;;;;;;;11.30;100.00;99436.44;15273238;19;20017;-47
2023/05/26 23:06:58;;;;;;;8.98;2.78;;;;;;;11.13;100.00;99429.91;15279048;19;20022;-49
2023/05/26 23:12:23;;;;;;;7.88;2.78;;;;;;;10.99;100.00;99437.44;15276964;19;20018;-44
2023/05/26 23:17:48;;;;;;;6.60;2.08;;;;;;;10.85;100.00;99444.03;15278901;19;20101;-46
2023/05/26 23:23:16;;;;;;;8.82;2.60;;;;;;;10.67;100.00;99435.75;15277561;19;20007;-47
2023/05/26 23:28:40;;;;;;;9.23;2.97;;;;;;;10.46;100.00;99441.25;15277083;19;20018;-48
2023/05/26 23:34:05;;;;;;;9.05;2.92;;;;;;;10.31;100.00;99440.69;15276591;19;20016;-49
2023/05/26 23:39:32;;;;;;;9.55;2.50;;;;;;;10.20;100.00;99452.44;15278584;19;20089;-49
2023/05/26 23:44:59;;;;;;;8.35;2.70;;;;;;;10.05;100.00;99456.44;15278457;19;20372;-49
2023/05/26 23:50:24;;;;;;;8.65;2.75;;;;;;;9.97;100.00;99454.41;15276286;19;20028;-48
2023/05/26 23:55:51;;;;;;;6.43;2.40;;;;;;;9.88;100.00;99450.66;15275328;19;20023;-46
